Time;durP1;ratioP1;P1;durP2;ratioP2;P2;SDS_P1;SDS_P2;PMS_P1;PMS_P2;Temp;Humidity;BMP_temperature;BMP_pressure;BME280_temperature;BME280_humidity;BME280_pressure;Samples;Min_cycle;Max_cycle;Signal;HPM_P1;HPM_P2
2022/02/24 00:00:27;;;;;;;6.07;3.40;;;6.10;99.90;;;;;;4974441;28;20137;-77
2022/02/24 04:50:11;;;;;;;7.57;3.73;;;4.70;99.90;;;;;;5262328;23;20315;-76
2022/02/24 04:52:39;;;;;;;7.05;3.78;;;4.70;99.90;;;;;;4978975;28;20306;-75
2022/02/24 04:55:08;;;;;;;6.18;3.42;;;4.70;99.90;;;;;;4977582;28;20105;-77
2022/02/24 04:57:35;;;;;;;6.78;3.30;;;4.70;99.90;;;;;;4963664;28;20046;-76
2022/02/24 05:00:03;;;;;;;7.38;3.65;;;4.70;99.90;;;;;;4978317;28;20046;-76
2022/02/24 05:02:30;;;;;;;8.30;3.78;;;4.70;99.90;;;;;;4979559;28;20141;-77
2022/02/24 05:04:57;;;;;;;8.10;3.42;;;4.80;99.90;;;;;;4977714;28;20137;-75
2022/02/24 05:07:26;;;;;;;6.32;3.65;;;4.80;99.90;;;;;;4975802;28;20520;-74
2022/02/24 05:09:53;;;;;;;11.88;5.65;;;4.80;99.90;;;;;;4976205;28;20047;-75
2022/02/24 05:12:20;;;;;;;21.77;9.20;;;4.80;99.90;;;;;;4973509;28;20047;-74
2022/02/24 05:14:47;;;;;;;12.95;6.13;;;4.80;99.90;;;;;;4978040;28;20051;-76
2022/02/24 05:17:14;;;;;;;8.65;4.50;;;4.90;99.90;;;;;;4977866;28;20053;-78
2022/02/24 05:19:41;;;;;;;6.78;3.83;;;4.90;99.90;;;;;;4977990;28;20082;-76
2022/02/24 05:22:08;;;;;;;5.88;3.45;;;4.90;99.90;;;;;;4977467;28;20393;-77
2022/02/24 05:24:39;;;;;;;7.15;3.50;;;4.90;99.90;;;;;;4978429;28;20043;-79
2022/02/24 05:27:06;;;;;;;6.50;3.40;;;4.90;99.90;;;;;;4978814;28;20519;-79
2022/02/24 05:29:33;;;;;;;6.28;3.15;;;4.80;99.90;;;;;;4978565;28;20043;-78
2022/02/24 05:32:03;;;;;;;5.60;2.97;;;4.80;99.90;;;;;;4981620;28;20049;-78
2022/02/24 05:34:30;;;;;;;7.68;3.88;;;4.70;99.90;;;;;;4982610;28;20050;-77
2022/02/24 05:36:57;;;;;;;6.57;3.42;;;4.60;99.90;;;;;;4982052;28;20526;-76
2022/02/24 05:39:29;;;;;;;8.02;3.83;;;4.50;99.90;;;;;;4982215;28;20137;-78
2022/02/24 05:42:06;;;;;;;6.75;4.03;;;4.50;99.90;;;;;;4981587;28;20053;-78
2022/02/24 05:44:37;;;;;;;8.02;3.95;;;4.40;99.90;;;;;;4981536;28;20155;-77
2022/02/24 05:47:07;;;;;;;7.13;3.50;;;4.40;99.90;;;;;;4980675;28;20050;-77
2022/02/24 05:49:35;;;;;;;6.60;3.47;;;4.30;99.90;;;;;;4981660;28;20057;-77
2022/02/24 05:52:02;;;;;;;6.50;3.40;;;4.40;99.90;;;;;;4981717;28;20051;-78
2022/02/24 05:54:29;;;;;;;6.18;3.20;;;4.30;99.90;;;;;;4979040;28;20043;-77
2022/02/24 05:56:57;;;;;;;5.18;3.20;;;4.30;99.90;;;;;;4979042;28;20069;-76
2022/02/24 05:59:27;;;;;;;6.20;3.60;;;4.30;99.90;;;;;;4978754;28;20053;-77
2022/02/24 06:01:55;;;;;;;5.85;3.40;;;4.30;99.90;;;;;;4979000;28;20042;-78
2022/02/24 06:04:23;;;;;;;7.35;3.72;;;4.40;99.90;;;;;;4978755;28;20133;-78
2022/02/24 06:06:50;;;;;;;6.10;3.30;;;4.40;99.90;;;;;;4978583;28;20484;-79
2022/02/24 06:09:18;;;;;;;6.82;3.35;;;4.40;99.90;;;;;;4977898;28;20043;-77
2022/02/24 06:11:46;;;;;;;6.47;3.58;;;4.40;99.90;;;;;;4977912;28;20047;-78
2022/02/24 06:14:17;;;;;;;6.35;3.40;;;4.40;99.90;;;;;;4978430;28;20054;-78
2022/02/24 06:16:44;;;;;;;8.40;3.80;;;4.40;99.90;;;;;;4978098;28;20053;-77
2022/02/24 06:19:11;;;;;;;7.75;3.78;;;4.40;99.90;;;;;;4977520;28;20146;-77
2022/02/24 06:21:39;;;;;;;6.97;3.42;;;4.50;99.90;;;;;;4978000;28;20051;-78
2022/02/24 06:24:07;;;;;;;6.57;3.63;;;4.50;99.90;;;;;;4977924;28;20046;-77
2022/02/24 06:26:35;;;;;;;7.38;3.92;;;4.50;99.90;;;;;;4978551;28;20054;-78
2022/02/24 06:29:03;;;;;;;7.35;3.80;;;4.40;99.90;;;;;;4979601;28;20049;-77
2022/02/24 06:31:34;;;;;;;8.23;3.25;;;4.30;99.90;;;;;;4979669;28;20141;-78
2022/02/24 06:34:02;;;;;;;5.85;3.55;;;4.20;99.90;;;;;;4979003;28;20046;-78
2022/02/24 06:36:29;;;;;;;8.15;3.70;;;4.20;99.90;;;;;;4978640;28;20058;-75
2022/02/24 06:38:57;;;;;;;7.97;3.97;;;4.20;99.90;;;;;;4978145;28;20460;-78
2022/02/24 06:41:25;;;;;;;7.63;3.65;;;4.20;99.90;;;;;;4978666;28;20080;-76
2022/02/24 06:43:53;;;;;;;6.88;3.50;;;4.10;99.90;;;;;;4978933;28;20051;-77
2022/02/24 06:46:21;;;;;;;7.40;3.20;;;4.10;99.90;;;;;;4978487;28;20126;-77
2022/02/24 06:48:53;;;;;;;7.88;3.67;;;4.10;99.90;;;;;;4980182;28;20046;-77
2022/02/24 06:51:20;;;;;;;6.72;3.45;;;4.10;99.90;;;;;;4979012;28;20066;-77
2022/02/24 06:53:47;;;;;;;6.13;3.42;;;4.10;99.90;;;;;;4977852;28;20074;-76
2022/02/24 06:56:23;;;;;;;7.82;3.40;;;4.10;99.90;;;;;;4977667;28;20047;-78
2022/02/24 06:58:51;;;;;;;8.38;3.40;;;4.10;99.90;;;;;;4977320;28;20050;-76
2022/02/24 07:01:18;;;;;;;6.95;3.63;;;4.10;99.90;;;;;;4977156;28;20412;-78
2022/02/24 07:03:45;;;;;;;6.68;3.10;;;4.20;99.90;;;;;;4977007;28;20055;-79
2022/02/24 07:06:14;;;;;;;6.85;3.35;;;4.30;99.90;;;;;;4976661;28;20053;-76
2022/02/24 07:08:41;;;;;;;7.57;3.65;;;4.30;99.90;;;;;;4976058;28;20047;-77
2022/02/24 07:11:08;;;;;;;7.30;3.60;;;4.40;99.90;;;;;;4976178;28;20138;-79
2022/02/24 07:13:35;;;;;;;8.07;3.47;;;4.50;99.90;;;;;;4976823;28;20422;-79
2022/02/24 07:16:03;;;;;;;6.78;3.58;;;4.40;99.90;;;;;;4975723;28;20488;-80
2022/02/24 07:18:30;;;;;;;8.20;3.70;;;4.50;99.90;;;;;;4977360;28;20137;-79
2022/02/24 07:20:57;;;;;;;8.40;3.80;;;4.50;99.90;;;;;;4976167;28;20077;-77
2022/02/24 07:23:26;;;;;;;7.03;3.55;;;4.60;99.90;;;;;;4975517;28;20090;-76
2022/02/24 07:25:55;;;;;;;7.57;4.20;;;4.60;99.90;;;;;;4975436;28;20129;-78
2022/02/24 07:28:24;;;;;;;9.02;5.53;;;4.60;99.90;;;;;;4976282;28;20138;-79
2022/02/24 07:30:51;;;;;;;12.20;6.90;;;4.70;99.90;;;;;;4975993;28;20133;-78
2022/02/24 07:33:18;;;;;;;11.25;6.38;;;4.70;99.90;;;;;;4975449;28;20051;-76
2022/02/24 07:35:45;;;;;;;8.80;5.28;;;4.70;99.90;;;;;;4974626;28;20047;-77
2022/02/24 07:38:12;;;;;;;10.90;5.10;;;4.70;99.90;;;;;;4975132;28;20047;-77
2022/02/24 07:40:41;;;;;;;11.73;6.20;;;4.80;99.90;;;;;;4975231;28;20051;-78
2022/02/24 07:43:08;;;;;;;10.85;6.00;;;4.90;99.90;;;;;;4975292;28;20087;-76
2022/02/24 07:45:35;;;;;;;9.80;4.90;;;4.90;99.90;;;;;;4975106;28;20051;-76
2022/02/24 07:48:02;;;;;;;8.43;4.95;;;5.00;99.90;;;;;;4975079;28;20488;-75
2022/02/24 07:50:29;;;;;;;9.23;4.90;;;5.00;99.90;;;;;;4974705;28;20059;-76
2022/02/24 07:52:56;;;;;;;8.50;4.40;;;5.10;99.90;;;;;;4974856;28;20074;-76
2022/02/24 07:55:23;;;;;;;8.65;4.20;;;5.10;99.90;;;;;;4974633;28;20428;-77
2022/02/24 07:57:52;;;;;;;7.55;4.53;;;5.20;99.90;;;;;;4974554;28;20518;-75
2022/02/24 08:00:19;;;;;;;8.20;4.78;;;5.30;99.90;;;;;;4974704;28;20105;-78
2022/02/24 08:02:46;;;;;;;8.48;4.70;;;5.30;99.90;;;;;;4974701;28;20564;-77
2022/02/24 08:05:14;;;;;;;8.27;5.05;;;5.40;99.90;;;;;;4974690;28;20412;-79
2022/02/24 08:07:41;;;;;;;8.90;4.82;;;5.40;99.90;;;;;;4974360;28;20057;-77
2022/02/24 08:10:09;;;;;;;7.53;4.55;;;5.40;99.90;;;;;;4974749;28;20055;-77
2022/02/24 08:12:43;;;;;;;8.65;4.78;;;5.50;99.90;;;;;;4974692;28;20130;-77
2022/02/24 08:15:14;;;;;;;7.00;3.95;;;5.60;99.90;;;;;;4974832;28;20054;-75
2022/02/24 08:17:42;;;;;;;7.30;3.78;;;5.60;99.90;;;;;;4974646;28;20081;-77
2022/02/24 08:20:12;;;;;;;6.35;4.00;;;5.70;99.90;;;;;;4973820;28;20039;-78
2022/02/24 08:22:40;;;;;;;7.68;3.70;;;5.70;99.90;;;;;;4974286;28;20054;-76
2022/02/24 08:25:12;;;;;;;8.43;3.97;;;5.70;99.90;;;;;;4974333;28;20047;-77
2022/02/24 08:27:39;;;;;;;6.65;4.22;;;5.80;99.90;;;;;;4974322;28;20047;-77
2022/02/24 08:30:14;;;;;;;9.57;4.10;;;5.90;99.90;;;;;;4974349;28;20053;-77
2022/02/24 08:32:43;;;;;;;8.63;4.45;;;5.90;99.90;;;;;;4974449;28;20053;-76
2022/02/24 08:35:12;;;;;;;9.63;4.60;;;6.00;99.90;;;;;;4974262;28;20061;-79
2022/02/24 08:37:39;;;;;;;9.32;4.45;;;6.10;99.90;;;;;;4974053;28;20476;-75
2022/02/24 08:40:09;;;;;;;8.32;4.45;;;6.20;99.90;;;;;;4974366;28;20042;-77
2022/02/24 08:42:36;;;;;;;7.90;4.40;;;6.30;99.90;;;;;;4974272;28;20133;-77
2022/02/24 08:45:04;;;;;;;9.07;4.57;;;6.40;99.90;;;;;;4974095;28;20069;-78
2022/02/24 08:47:33;;;;;;;8.80;4.88;;;6.50;99.90;;;;;;4974674;28;20047;-77
2022/02/24 08:50:01;;;;;;;7.00;4.40;;;6.60;99.90;;;;;;4978128;28;20496;-78
2022/02/24 08:52:28;;;;;;;7.80;4.20;;;6.70;99.90;;;;;;4978137;28;20051;-77
2022/02/24 08:54:55;;;;;;;7.70;4.22;;;6.80;99.90;;;;;;4977252;28;20049;-77
2022/02/24 08:57:22;;;;;;;9.35;4.47;;;6.90;99.90;;;;;;4978398;28;20047;-76
2022/02/24 08:59:49;;;;;;;6.82;4.00;;;7.00;99.90;;;;;;4977909;28;20510;-79
2022/02/24 09:02:17;;;;;;;8.27;4.15;;;7.10;99.90;;;;;;4978656;28;20424;-75
2022/02/24 09:04:46;;;;;;;6.63;3.88;;;7.10;99.90;;;;;;4980640;28;20054;-78
2022/02/24 09:07:13;;;;;;;7.55;3.95;;;7.20;99.90;;;;;;4978276;28;20047;-76
2022/02/24 09:09:40;;;;;;;7.40;3.90;;;7.40;99.90;;;;;;4978516;28;20050;-77
2022/02/24 09:12:09;;;;;;;7.13;3.95;;;7.40;99.90;;;;;;4978329;28;20139;-75
2022/02/24 09:14:36;;;;;;;6.90;4.10;;;7.60;99.90;;;;;;4962141;28;20135;-75
2022/02/24 09:17:04;;;;;;;7.30;3.88;;;7.70;99.90;;;;;;4957104;29;20563;-77
2022/02/24 09:19:31;;;;;;;7.22;4.38;;;7.80;99.90;;;;;;4956015;29;20059;-77
2022/02/24 09:22:00;;;;;;;7.53;4.60;;;8.00;99.90;;;;;;4956355;29;20059;-77
2022/02/24 09:24:28;;;;;;;7.32;4.00;;;8.10;99.90;;;;;;4955827;29;20110;-75
2022/02/24 09:26:55;;;;;;;7.97;4.40;;;8.20;99.90;;;;;;4955184;29;20055;-77
2022/02/24 09:29:22;;;;;;;9.40;4.82;;;8.40;99.90;;;;;;4955831;29;20464;-75
2022/02/24 09:31:49;;;;;;;9.30;4.47;;;8.50;99.90;;;;;;4968014;28;20050;-78
2022/02/24 09:34:16;;;;;;;8.05;4.72;;;8.60;99.90;;;;;;4974403;28;20047;-78
2022/02/24 09:36:44;;;;;;;8.45;4.93;;;8.70;99.90;;;;;;4974644;28;20484;-75
2022/02/24 09:39:13;;;;;;;9.77;5.20;;;8.90;99.90;;;;;;4974403;28;20055;-77
2022/02/24 09:41:40;;;;;;;9.23;5.13;;;9.00;99.90;;;;;;4974056;28;20055;-76
2022/02/24 09:44:07;;;;;;;6.90;4.10;;;9.10;99.90;;;;;;4973847;28;20543;-75
2022/02/24 09:46:35;;;;;;;8.20;5.00;;;9.10;99.90;;;;;;4974361;28;20130;-78
2022/02/24 09:49:05;;;;;;;10.15;5.00;;;9.20;99.90;;;;;;4973230;28;20073;-75
2022/02/24 09:51:32;;;;;;;7.95;4.85;;;9.30;99.90;;;;;;4974127;28;20054;-77
2022/02/24 09:54:01;;;;;;;9.10;4.53;;;9.40;99.90;;;;;;4974065;28;20141;-76
2022/02/24 09:56:30;;;;;;;8.80;4.40;;;9.40;99.90;;;;;;4974397;28;20055;-75
2022/02/24 09:58:58;;;;;;;6.55;4.10;;;9.50;99.90;;;;;;4974652;28;20054;-78
2022/02/24 10:01:25;;;;;;;7.88;4.40;;;9.70;99.90;;;;;;4973489;28;20436;-75
2022/02/24 10:03:57;;;;;;;8.73;4.55;;;9.80;99.90;;;;;;4974318;28;20065;-78
2022/02/24 10:06:35;;;;;;;7.93;4.30;;;9.90;99.90;;;;;;4973931;28;20042;-77
2022/02/24 10:09:04;;;;;;;7.38;4.22;;;10.00;99.90;;;;;;4974401;28;20055;-79
2022/02/24 10:11:34;;;;;;;7.47;4.30;;;10.10;99.80;;;;;;4973873;28;20071;-78
2022/02/24 10:14:05;;;;;;;5.72;3.08;;;10.20;99.50;;;;;;4974031;28;20059;-78
2022/02/24 10:16:51;;;;;;;7.50;3.33;;;10.30;99.50;;;;;;4974101;28;20068;-76
2022/02/24 10:19:18;;;;;;;6.47;3.22;;;10.30;98.70;;;;;;4974196;28;20055;-77
2022/02/24 10:22:08;;;;;;;6.82;3.53;;;10.50;98.20;;;;;;4973812;28;20062;-76
2022/02/24 10:24:37;;;;;;;5.45;2.90;;;10.60;98.00;;;;;;4973849;28;20051;-75
2022/02/24 10:27:21;;;;;;;4.53;2.70;;;10.60;97.80;;;;;;4974107;28;20054;-75
2022/02/24 10:30:04;;;;;;;6.13;3.03;;;10.80;97.70;;;;;;4973770;28;20464;-75
2022/02/24 10:32:34;;;;;;;5.75;2.85;;;10.90;96.60;;;;;;4972031;28;20065;-76
2022/02/24 10:35:26;;;;;;;5.88;2.88;;;11.10;96.50;;;;;;4973765;28;20051;-75
2022/02/24 10:37:56;;;;;;;6.00;2.75;;;11.20;96.10;;;;;;4954936;28;20137;-77
2022/02/24 10:40:28;;;;;;;5.45;2.60;;;11.30;96.10;;;;;;4974042;28;20072;-76
2022/02/24 10:43:11;;;;;;;5.90;2.70;;;11.50;95.60;;;;;;4973660;28;20073;-75
2022/02/24 10:45:38;;;;;;;7.28;3.30;;;11.60;95.10;;;;;;4973658;28;20051;-77
2022/02/24 10:48:07;;;;;;;7.53;3.25;;;11.80;94.50;;;;;;4973649;28;20050;-76
2022/02/24 10:50:56;;;;;;;6.30;3.05;;;11.90;94.10;;;;;;4973400;28;20051;-76
2022/02/24 10:53:27;;;;;;;6.30;3.20;;;12.10;94.10;;;;;;4954349;29;20055;-75
2022/02/24 10:56:06;;;;;;;6.30;3.28;;;12.30;93.70;;;;;;4965560;28;20047;-75
2022/02/24 10:58:38;;;;;;;3.60;1.80;;;12.40;93.40;;;;;;4973290;28;20046;-76
2022/02/24 11:01:12;;;;;;;5.13;2.20;;;12.50;90.80;;;;;;4973504;28;20129;-76
2022/02/24 11:03:42;;;;;;;5.63;1.88;;;12.70;90.70;;;;;;4973541;28;20051;-77
2022/02/24 11:06:10;;;;;;;4.55;1.80;;;12.80;89.30;;;;;;4973280;28;20086;-78
2022/02/24 11:08:38;;;;;;;5.10;1.90;;;12.90;89.10;;;;;;4973128;28;20063;-78
2022/02/24 11:11:06;;;;;;;4.18;1.67;;;13.00;87.90;;;;;;4971420;28;20134;-84
2022/02/24 11:13:36;;;;;;;5.82;1.67;;;13.20;88.40;;;;;;4972781;28;20057;-80
2022/02/24 11:16:04;;;;;;;5.68;1.60;;;13.30;84.30;;;;;;4973186;28;20049;-80
2022/02/24 11:18:32;;;;;;;3.67;1.20;;;13.40;81.30;;;;;;4972842;28;20077;-82
2022/02/24 11:20:59;;;;;;;3.55;1.30;;;13.50;80.20;;;;;;4973154;28;20054;-81
2022/02/24 11:23:27;;;;;;;4.47;1.40;;;13.60;76.30;;;;;;4972647;28;20058;-79
2022/02/24 11:26:31;;;;;;;3.80;1.20;;;13.70;75.20;;;;;;4972649;28;20230;-79
2022/02/24 11:29:10;;;;;;;4.50;1.23;;;13.70;75.10;;;;;;4973061;28;20050;-80
2022/02/24 11:31:52;;;;;;;4.85;1.30;;;13.80;73.60;;;;;;4970987;28;20074;-79
2022/02/24 11:34:19;;;;;;;4.07;1.40;;;13.90;72.10;;;;;;4972590;28;20058;-80
2022/02/24 11:36:47;;;;;;;3.58;1.10;;;13.90;69.30;;;;;;4972857;28;20047;-80
2022/02/24 11:39:16;;;;;;;4.43;1.10;;;14.00;70.20;;;;;;4972041;28;20055;-80
2022/02/24 11:41:55;;;;;;;5.28;1.13;;;14.00;68.70;;;;;;4972396;28;20057;-80
2022/02/24 11:44:36;;;;;;;4.90;1.33;;;14.10;66.90;;;;;;4972196;28;20094;-80
2022/02/24 11:47:07;;;;;;;3.05;1.20;;;14.10;66.00;;;;;;4972564;28;20174;-80
2022/02/24 11:50:13;;;;;;;3.40;1.20;;;14.10;65.60;;;;;;4971959;28;20141;-80
2022/02/24 11:52:50;;;;;;;3.38;1.00;;;14.10;66.30;;;;;;4966893;28;20553;-81
2022/02/24 11:55:53;;;;;;;4.53;1.10;;;14.20;66.40;;;;;;4972457;28;20050;-80
2022/02/24 11:58:55;;;;;;;3.85;1.20;;;14.40;65.70;;;;;;4972446;28;20057;-80
2022/02/24 12:01:38;;;;;;;3.72;1.35;;;14.40;63.60;;;;;;4972034;28;20130;-78
2022/02/24 12:04:27;;;;;;;4.20;1.50;;;14.50;62.20;;;;;;4971907;28;20059;-80
2022/02/24 12:06:57;;;;;;;3.95;1.17;;;14.60;60.20;;;;;;4972010;28;20133;-77
2022/02/24 12:09:33;;;;;;;6.53;2.80;;;14.60;59.80;;;;;;4972466;28;20499;-78
2022/02/24 12:12:03;;;;;;;4.63;1.50;;;14.50;59.00;;;;;;4972246;28;20053;-78
2022/02/24 12:14:50;;;;;;;5.70;1.20;;;14.50;58.70;;;;;;4971348;28;20504;-79
2022/02/24 12:17:22;;;;;;;4.68;1.50;;;14.40;58.10;;;;;;4971747;28;20054;-78
2022/02/24 12:19:54;;;;;;;6.60;1.40;;;14.30;58.60;;;;;;4971371;28;20399;-78
2022/02/24 12:22:37;;;;;;;4.68;1.27;;;14.30;57.70;;;;;;4972156;28;20057;-78
2022/02/24 12:25:17;;;;;;;4.55;1.65;;;14.20;58.60;;;;;;4971498;28;20500;-78
2022/02/24 12:27:47;;;;;;;4.93;1.33;;;14.20;56.80;;;;;;4971735;28;20583;-80
2022/02/24 12:30:19;;;;;;;5.38;1.52;;;14.20;56.90;;;;;;4971970;28;20078;-78
2022/02/24 12:32:50;;;;;;;5.57;1.50;;;14.20;57.40;;;;;;4969886;28;20047;-78
2022/02/24 12:35:20;;;;;;;3.85;1.02;;;14.10;56.50;;;;;;4971603;28;20069;-77
2022/02/24 12:37:50;;;;;;;3.33;1.20;;;14.20;56.90;;;;;;4971596;28;20424;-78
2022/02/24 12:40:21;;;;;;;4.95;1.30;;;14.20;57.60;;;;;;4971536;28;20052;-80
2022/02/24 12:42:48;;;;;;;4.18;1.27;;;14.20;57.20;;;;;;4971384;28;20053;-79
2022/02/24 12:45:17;;;;;;;4.32;1.10;;;14.30;54.90;;;;;;4972338;28;20058;-77
2022/02/24 12:47:46;;;;;;;4.28;1.00;;;14.30;52.30;;;;;;4972315;28;20051;-77
2022/02/24 12:50:20;;;;;;;3.60;1.10;;;14.30;51.80;;;;;;4972383;28;20058;-78
2022/02/24 12:52:48;;;;;;;5.20;1.10;;;14.30;51.80;;;;;;4971880;28;20055;-79
2022/02/24 12:55:18;;;;;;;2.97;1.10;;;14.20;52.00;;;;;;4971127;28;20576;-78
2022/02/24 12:57:46;;;;;;;3.97;1.10;;;14.20;52.30;;;;;;4971888;28;20051;-80
2022/02/24 13:00:14;;;;;;;5.13;1.00;;;14.20;52.90;;;;;;4971554;28;20055;-78
2022/02/24 13:02:42;;;;;;;6.45;1.25;;;14.20;53.60;;;;;;4971263;28;20061;-79
2022/02/24 13:05:11;;;;;;;4.40;1.30;;;14.20;53.80;;;;;;4971200;28;20086;-78
2022/02/24 13:10:36;;;;;;;4.78;1.40;;;14.30;53.50;;;;;;4971292;28;20061;-79
2022/02/24 13:13:03;;;;;;;3.78;1.33;;;14.40;54.00;;;;;;4971214;28;20057;-79
2022/02/24 13:15:31;;;;;;;2.72;1.10;;;14.40;53.80;;;;;;4971252;28;20082;-79
2022/02/24 13:17:59;;;;;;;4.55;1.40;;;14.40;53.90;;;;;;4971132;28;20494;-78
2022/02/24 13:20:32;;;;;;;4.82;1.25;;;14.40;54.60;;;;;;4971014;28;20163;-78
2022/02/24 13:23:01;;;;;;;5.57;1.70;;;14.30;54.90;;;;;;4971053;28;20047;-78
2022/02/24 13:25:30;;;;;;;5.35;1.30;;;14.30;55.50;;;;;;4971324;28;20065;-80
2022/02/24 13:28:00;;;;;;;3.90;1.25;;;14.30;56.00;;;;;;4971326;28;20474;-78
2022/02/24 13:30:31;;;;;;;3.88;1.20;;;14.20;56.80;;;;;;4971187;28;20051;-80
2022/02/24 13:33:05;;;;;;;4.72;1.30;;;14.20;56.30;;;;;;4969160;28;20294;-80
2022/02/24 13:35:39;;;;;;;5.32;1.35;;;14.10;57.00;;;;;;4974718;28;20054;-76
2022/02/24 13:38:10;;;;;;;6.23;1.50;;;14.00;57.80;;;;;;4974798;28;20059;-75
2022/02/24 13:40:47;;;;;;;4.75;1.30;;;13.90;57.90;;;;;;4974513;28;20054;-80
2022/02/24 13:43:15;;;;;;;4.35;1.38;;;13.80;58.10;;;;;;4974644;28;20051;-79
2022/02/24 13:45:43;;;;;;;3.85;1.20;;;13.80;58.90;;;;;;4974679;28;20051;-79
2022/02/24 13:48:12;;;;;;;4.30;1.35;;;13.70;59.60;;;;;;4974395;28;20050;-80
2022/02/24 13:50:43;;;;;;;5.35;1.40;;;13.70;59.50;;;;;;4974112;28;20062;-79
2022/02/24 13:53:17;;;;;;;4.07;1.30;;;13.60;59.70;;;;;;4974632;28;20153;-80
2022/02/24 13:55:52;;;;;;;5.75;1.33;;;13.60;59.80;;;;;;4974374;28;20409;-80
2022/02/24 13:58:24;;;;;;;4.18;1.25;;;13.60;59.90;;;;;;4971997;28;20054;-78
2022/02/24 14:00:55;;;;;;;4.70;1.15;;;13.60;59.80;;;;;;4974500;28;20469;-78
2022/02/24 14:03:31;;;;;;;3.30;1.02;;;13.50;60.10;;;;;;4974371;28;20054;-78
2022/02/24 14:06:06;;;;;;;5.35;1.52;;;13.50;60.30;;;;;;4974220;28;20147;-77
2022/02/24 14:08:34;;;;;;;4.60;1.30;;;13.60;60.40;;;;;;4974579;28;20142;-78
2022/02/24 14:11:11;;;;;;;3.55;1.25;;;13.90;60.80;;;;;;4973777;28;20049;-77
2022/02/24 14:13:40;;;;;;;6.38;1.60;;;14.00;60.10;;;;;;4973811;28;20066;-79
2022/02/24 14:16:07;;;;;;;3.85;1.40;;;14.00;59.60;;;;;;4974032;28;20062;-79
2022/02/24 14:18:35;;;;;;;3.85;1.30;;;13.80;59.00;;;;;;4973847;28;20059;-80
2022/02/24 14:21:03;;;;;;;4.05;1.13;;;13.70;59.70;;;;;;4974166;28;20065;-80
2022/02/24 14:23:30;;;;;;;4.47;1.30;;;13.60;60.00;;;;;;4974168;28;20053;-76
2022/02/24 14:25:59;;;;;;;4.55;1.50;;;13.50;60.00;;;;;;4973575;28;20255;-76
2022/02/24 14:28:27;;;;;;;4.10;1.35;;;13.40;60.40;;;;;;4973901;28;20054;-80
2022/02/24 14:30:54;;;;;;;5.45;1.40;;;13.40;60.80;;;;;;4973886;28;20082;-79
2022/02/24 14:33:22;;;;;;;3.95;1.20;;;13.30;60.90;;;;;;4971966;28;20060;-79
2022/02/24 14:35:49;;;;;;;4.38;1.15;;;13.30;60.90;;;;;;4973831;28;20061;-80
2022/02/24 14:38:17;;;;;;;4.85;1.35;;;13.30;60.70;;;;;;4973550;28;20055;-79
2022/02/24 14:40:46;;;;;;;3.15;1.08;;;13.30;60.50;;;;;;4973440;28;20051;-80
2022/02/24 14:43:17;;;;;;;5.07;1.42;;;13.30;60.80;;;;;;4973753;28;20405;-79
2022/02/24 14:45:46;;;;;;;4.82;1.50;;;13.20;61.00;;;;;;4972253;28;20514;-79
2022/02/24 14:48:16;;;;;;;5.55;1.45;;;13.20;61.10;;;;;;4974019;28;20056;-80
2022/02/24 14:50:44;;;;;;;4.60;1.25;;;13.20;61.00;;;;;;4973243;28;20086;-78
2022/02/24 14:53:11;;;;;;;3.58;1.10;;;13.30;61.20;;;;;;4973845;28;20046;-79
2022/02/24 14:55:39;;;;;;;4.07;1.55;;;13.20;61.30;;;;;;4973469;28;20065;-81
2022/02/24 14:58:07;;;;;;;4.68;1.30;;;13.20;61.10;;;;;;4972842;28;20054;-80
2022/02/24 15:00:36;;;;;;;3.60;1.25;;;13.20;61.30;;;;;;4973475;28;20141;-79
2022/02/24 15:03:04;;;;;;;5.88;1.85;;;13.20;60.90;;;;;;4972932;28;20137;-78
2022/02/24 15:05:32;;;;;;;4.63;1.30;;;13.10;61.00;;;;;;4973019;28;20061;-78
2022/02/24 15:08:01;;;;;;;3.63;1.40;;;13.10;61.20;;;;;;4973090;28;20050;-80
2022/02/24 15:10:28;;;;;;;6.18;1.50;;;13.00;61.40;;;;;;4972908;28;20062;-80
2022/02/24 15:12:56;;;;;;;4.60;1.30;;;13.00;61.60;;;;;;4973144;28;20137;-79
2022/02/24 15:15:23;;;;;;;6.60;1.83;;;13.00;61.90;;;;;;4973130;28;20054;-80
2022/02/24 15:17:54;;;;;;;5.20;1.50;;;13.00;62.60;;;;;;4972825;28;20496;-78
2022/02/24 15:20:22;;;;;;;4.93;1.48;;;13.00;62.00;;;;;;4972758;28;20134;-80
2022/02/24 15:22:50;;;;;;;5.20;1.40;;;13.00;62.70;;;;;;4972737;28;20061;-81
2022/02/24 15:25:18;;;;;;;4.30;1.30;;;12.90;62.50;;;;;;4972499;28;20061;-79
2022/02/24 15:27:45;;;;;;;4.78;1.40;;;12.90;62.50;;;;;;4972797;28;20135;-78
2022/02/24 15:30:13;;;;;;;5.20;1.60;;;12.90;62.60;;;;;;4972812;28;20046;-78
2022/02/24 15:32:42;;;;;;;4.85;1.13;;;12.80;63.00;;;;;;4970604;28;20062;-81
2022/02/24 15:35:11;;;;;;;5.10;1.30;;;12.80;62.80;;;;;;4972660;28;20050;-81
2022/02/24 15:37:38;;;;;;;4.65;1.48;;;12.80;63.40;;;;;;4972159;28;20059;-78
2022/02/24 15:40:09;;;;;;;6.85;1.33;;;12.70;63.60;;;;;;4972710;28;20143;-79
2022/02/24 15:42:37;;;;;;;5.57;1.55;;;12.70;63.50;;;;;;4972045;28;20143;-78
2022/02/24 15:45:06;;;;;;;6.63;1.52;;;12.70;64.00;;;;;;4972010;28;20061;-80
2022/02/24 15:47:33;;;;;;;3.50;1.15;;;12.70;63.90;;;;;;4962726;28;20066;-81
2022/02/24 15:50:01;;;;;;;6.50;1.60;;;12.70;64.00;;;;;;4971875;28;20161;-80
2022/02/24 15:52:29;;;;;;;7.47;1.40;;;12.70;64.20;;;;;;4971947;28;20047;-78
2022/02/24 15:54:57;;;;;;;6.50;1.50;;;12.60;64.70;;;;;;4970334;28;20134;-80
2022/02/24 15:57:24;;;;;;;3.55;1.35;;;12.70;64.40;;;;;;4971423;28;20707;-78
2022/02/24 15:59:51;;;;;;;5.00;1.30;;;12.60;65.40;;;;;;4971416;28;20054;-76
2022/02/24 16:02:19;;;;;;;4.68;1.33;;;12.60;65.00;;;;;;4971924;28;20051;-80
2022/02/24 16:04:46;;;;;;;4.93;1.30;;;12.60;65.30;;;;;;4971826;28;20061;-80
2022/02/24 16:07:13;;;;;;;6.03;1.40;;;12.60;65.40;;;;;;4972342;28;20547;-80
2022/02/24 16:09:41;;;;;;;5.55;1.40;;;12.60;65.60;;;;;;4972423;28;20046;-79
2022/02/24 16:12:09;;;;;;;4.70;1.52;;;12.70;65.80;;;;;;4972174;28;20480;-78
2022/02/24 16:14:38;;;;;;;6.07;1.63;;;13.00;65.70;;;;;;4973973;28;20058;-79
2022/02/24 16:17:05;;;;;;;5.95;1.60;;;13.40;64.40;;;;;;4973131;28;20073;-77
2022/02/24 16:19:32;;;;;;;6.53;1.80;;;13.40;64.30;;;;;;4972870;28;20065;-79
2022/02/24 16:22:00;;;;;;;3.88;1.33;;;13.50;64.20;;;;;;4976762;28;20055;-81
2022/02/24 16:24:27;;;;;;;4.63;1.40;;;14.10;63.30;;;;;;4979338;28;20082;-80
2022/02/24 16:26:56;;;;;;;5.97;1.48;;;14.20;62.30;;;;;;4979356;28;20103;-80
2022/02/24 16:29:23;;;;;;;5.57;1.50;;;14.00;62.10;;;;;;4976317;28;20133;-78
2022/02/24 16:31:52;;;;;;;6.45;1.60;;;13.80;62.40;;;;;;4975390;28;20146;-76
2022/02/24 16:34:19;;;;;;;4.80;1.40;;;14.10;62.60;;;;;;4971930;28;20047;-80
2022/02/24 16:36:46;;;;;;;4.35;1.40;;;14.30;61.50;;;;;;4971365;28;20364;-78
2022/02/24 16:39:13;;;;;;;6.30;1.60;;;14.10;61.60;;;;;;4971148;28;20526;-80
2022/02/24 16:41:41;;;;;;;4.72;1.40;;;13.90;62.30;;;;;;4971565;28;20050;-80
2022/02/24 16:44:09;;;;;;;4.55;1.50;;;14.00;62.40;;;;;;4971292;28;20125;-80
2022/02/24 16:46:36;;;;;;;4.60;1.50;;;14.20;62.00;;;;;;4971547;28;20138;-80
2022/02/24 16:49:04;;;;;;;4.45;1.40;;;14.20;62.00;;;;;;4971325;28;20061;-79
2022/02/24 16:51:31;;;;;;;4.55;1.27;;;14.00;62.20;;;;;;4971191;28;20134;-80
2022/02/24 16:53:58;;;;;;;4.65;1.40;;;13.60;62.80;;;;;;4970255;28;20051;-79
2022/02/24 16:56:25;;;;;;;6.30;1.50;;;13.40;63.60;;;;;;4971265;28;20047;-79
2022/02/24 16:58:52;;;;;;;5.95;1.55;;;13.10;64.60;;;;;;4970799;28;20069;-79
2022/02/24 17:01:20;;;;;;;5.65;1.50;;;12.90;65.10;;;;;;4972015;28;20051;-78
2022/02/24 17:03:47;;;;;;;5.65;1.40;;;12.80;65.80;;;;;;4962192;28;20706;-79
2022/02/24 17:06:14;;;;;;;4.72;1.40;;;12.70;66.90;;;;;;4958335;28;20058;-80
2022/02/24 17:08:41;;;;;;;4.60;1.20;;;12.60;66.60;;;;;;4962938;28;20142;-80
2022/02/24 17:11:10;;;;;;;4.60;1.30;;;12.50;67.10;;;;;;4965563;28;20053;-78
2022/02/24 17:13:39;;;;;;;4.63;2.10;;;12.40;67.30;;;;;;4973557;28;20137;-78
2022/02/24 17:16:06;;;;;;;4.93;1.45;;;12.30;67.60;;;;;;4969696;28;20057;-79
2022/02/24 17:18:35;;;;;;;4.93;1.55;;;12.20;67.90;;;;;;4969310;28;20057;-79
2022/02/24 17:21:06;;;;;;;5.93;1.63;;;12.10;68.10;;;;;;4971628;28;20049;-79
2022/02/24 17:23:34;;;;;;;6.75;1.85;;;12.10;68.50;;;;;;4972263;28;20092;-78
2022/02/24 17:26:02;;;;;;;6.38;1.73;;;12.00;68.70;;;;;;4970385;28;20051;-79
2022/02/24 17:28:30;;;;;;;6.47;2.47;;;11.90;69.10;;;;;;4968545;28;20058;-79
2022/02/24 17:30:57;;;;;;;5.75;1.80;;;11.90;69.40;;;;;;4969721;28;20086;-81
2022/02/24 17:33:26;;;;;;;5.53;1.70;;;11.80;69.70;;;;;;4971786;28;20043;-76
2022/02/24 17:35:55;;;;;;;4.95;1.45;;;11.80;69.90;;;;;;4964895;28;20050;-81
2022/02/24 17:38:22;;;;;;;4.78;1.40;;;11.70;69.70;;;;;;4973056;28;20061;-79
2022/02/24 17:40:49;;;;;;;5.38;1.45;;;11.70;69.40;;;;;;4962113;28;20057;-80
2022/02/24 17:43:16;;;;;;;5.55;1.90;;;11.70;69.70;;;;;;4956838;28;20054;-80
2022/02/24 17:45:43;;;;;;;6.95;2.50;;;11.60;69.90;;;;;;4974393;28;20053;-76
2022/02/24 17:48:11;;;;;;;4.25;1.48;;;11.60;69.90;;;;;;4968175;28;20743;-77
2022/02/24 17:50:39;;;;;;;4.75;1.48;;;11.60;70.00;;;;;;4973254;28;20054;-79
2022/02/24 17:53:08;;;;;;;3.60;1.33;;;11.50;70.10;;;;;;4973031;28;20058;-75